createdAt,value
2022-08-09T00:02:42.881Z,3.38
2022-08-09T00:06:19.074Z,2.63
2022-08-09T00:09:45.893Z,2.45
2022-08-09T00:13:16.830Z,2.65
2022-08-09T00:16:40.898Z,2.33
2022-08-09T00:20:06.769Z,2.70
2022-08-09T00:23:57.490Z,2.17
2022-08-09T00:27:18.309Z,2.65
2022-08-09T00:30:42.048Z,2.30
2022-08-09T00:34:05.163Z,2.40
2022-08-09T00:37:32.281Z,2.05
2022-08-09T00:40:55.885Z,2.47
2022-08-09T00:44:26.062Z,2.17
2022-08-09T00:47:50.588Z,2.28
2022-08-09T00:51:16.973Z,2.15
2022-08-09T00:54:42.193Z,2.55
2022-08-09T00:58:06.177Z,2.42
2022-08-09T01:01:44.218Z,2.83
2022-08-09T01:05:22.002Z,2.58
2022-08-09T01:08:55.850Z,3.00
2022-08-09T01:12:28.433Z,2.28
2022-08-09T01:15:55.219Z,2.63
2022-08-09T01:19:43.095Z,2.55
2022-08-09T01:24:02.270Z,2.67
2022-08-09T01:27:13.909Z,2.08
2022-08-09T01:30:51.730Z,2.60
2022-08-09T01:34:19.771Z,2.35
2022-08-09T01:38:09.987Z,2.45
2022-08-09T01:41:31.242Z,3.08
2022-08-09T01:44:56.797Z,2.33
2022-08-09T01:48:24.010Z,2.38
2022-08-09T01:51:54.264Z,2.88
2022-08-09T01:55:18.303Z,2.35
2022-08-09T01:58:43.695Z,2.90
2022-08-09T02:02:16.420Z,2.40
2022-08-09T02:06:03.354Z,2.33
2022-08-09T02:09:41.859Z,2.42
2022-08-09T02:13:09.077Z,2.70
2022-08-09T02:17:00.043Z,2.15
2022-08-09T02:20:26.692Z,2.85
2022-08-09T02:23:58.610Z,2.00
2022-08-09T02:27:27.333Z,2.38
2022-08-09T02:31:09.152Z,2.40
2022-08-09T02:34:40.088Z,2.42
2022-08-09T02:38:07.475Z,2.00
2022-08-09T02:41:42.318Z,2.58
2022-08-09T02:45:08.643Z,2.58
2022-08-09T02:48:33.714Z,2.83
2022-08-09T02:52:00.494Z,2.78
2022-08-09T02:55:46.306Z,2.55
2022-08-09T02:59:26.507Z,2.40
2022-08-09T03:03:00.837Z,2.28
2022-08-09T03:06:27.363Z,2.70
2022-08-09T03:09:54.312Z,3.10
2022-08-09T03:13:23.558Z,2.40
2022-08-09T03:16:48.512Z,3.08
2022-08-09T03:20:14.009Z,2.38
2022-08-09T03:23:37.782Z,2.28
2022-08-09T03:27:01.586Z,2.50
2022-08-09T03:30:29.365Z,2.85
2022-08-09T03:33:58.092Z,2.90
2022-08-09T03:37:55.177Z,2.33
2022-08-09T03:41:04.269Z,2.42
2022-08-09T03:44:32.043Z,2.50
2022-08-09T03:47:56.482Z,3.05
2022-08-09T03:51:54.234Z,2.78
2022-08-09T03:55:07.534Z,3.08
2022-08-09T03:58:33.398Z,2.75
2022-08-09T04:01:59.088Z,2.85
2022-08-09T04:05:27.467Z,2.75
2022-08-09T04:08:51.053Z,2.75
2022-08-09T04:12:36.310Z,2.70
2022-08-09T04:16:19.919Z,2.15
2022-08-09T04:19:51.242Z,2.88
2022-08-09T04:23:24.635Z,2.80
2022-08-09T04:26:48.703Z,2.78
2022-08-09T04:30:14.212Z,2.90
2022-08-09T04:33:51.728Z,2.67
2022-08-09T04:37:16.357Z,2.95
2022-08-09T04:40:56.208Z,3.45
2022-08-09T04:44:19.510Z,2.65
2022-08-09T04:47:59.495Z,2.92
2022-08-09T04:51:25.025Z,2.85
2022-08-09T04:54:51.390Z,2.88
2022-08-09T04:58:15.918Z,3.50
2022-08-09T05:01:39.467Z,2.92
2022-08-09T05:05:09.611Z,3.03
2022-08-09T05:08:33.531Z,4.03
2022-08-09T05:11:57.105Z,3.45
2022-08-09T05:15:38.631Z,3.53
2022-08-09T05:19:02.844Z,3.28
2022-08-09T05:22:35.876Z,3.60
2022-08-09T05:26:09.705Z,2.92
2022-08-09T05:29:45.285Z,2.92
2022-08-09T05:33:11.121Z,3.95
2022-08-09T05:36:34.143Z,3.10
2022-08-09T05:39:58.766Z,3.40
2022-08-09T05:43:23.956Z,3.30
2022-08-09T05:46:52.129Z,3.53
2022-08-09T05:50:35.004Z,3.45
2022-08-09T05:54:00.696Z,3.65
2022-08-09T05:57:25.219Z,4.07
2022-08-09T06:01:06.853Z,4.00
2022-08-09T06:04:34.895Z,3.75
2022-08-09T06:08:05.378Z,3.88
2022-08-09T06:11:40.933Z,3.47
2022-08-09T06:15:14.261Z,3.83
2022-08-09T06:18:37.646Z,3.38
2022-08-09T06:22:01.126Z,3.65
2022-08-09T06:25:26.161Z,4.97
2022-08-09T06:29:00.386Z,3.83
2022-08-09T06:33:13.772Z,3.97
2022-08-09T06:36:07.715Z,3.55
2022-08-09T06:39:49.033Z,4.07
2022-08-09T06:43:15.729Z,4.28
2022-08-09T06:46:40.069Z,4.10
2022-08-09T06:50:14.968Z,3.83
2022-08-09T06:53:40.305Z,4.00
2022-08-09T06:57:03.333Z,3.67
2022-08-09T07:00:51.427Z,3.38
2022-08-09T07:04:12.406Z,3.40
2022-08-09T07:07:59.553Z,3.42
2022-08-09T07:11:25.585Z,3.95
2022-08-09T07:14:51.081Z,3.92
2022-08-09T07:18:16.296Z,4.70
2022-08-09T07:21:39.538Z,4.80
2022-08-09T07:25:09.750Z,4.43
2022-08-09T07:28:34.787Z,4.60
2022-08-09T07:32:00.534Z,4.32
2022-08-09T07:35:25.665Z,3.50
2022-08-09T07:38:56.743Z,4.05
2022-08-09T07:42:32.484Z,4.43
2022-08-09T07:45:55.999Z,4.18
2022-08-09T07:49:25.088Z,4.28
2022-08-09T07:52:52.372Z,3.67
2022-08-09T07:56:26.749Z,4.28
2022-08-09T08:00:03.035Z,4.10
2022-08-09T08:03:36.895Z,5.03
2022-08-09T08:07:27.210Z,5.38
2022-08-09T08:11:03.180Z,4.80
2022-08-09T08:14:28.252Z,4.00
2022-08-09T08:17:58.358Z,3.55
2022-08-09T08:21:21.670Z,3.70
2022-08-09T08:24:50.880Z,4.55
2022-08-09T08:28:18.268Z,4.18
2022-08-09T08:32:04.248Z,4.53
2022-08-09T08:35:52.993Z,3.83
2022-08-09T08:39:12.459Z,4.63
2022-08-09T08:42:35.842Z,4.68
2022-08-09T08:46:31.681Z,4.63
2022-08-09T08:49:49.586Z,4.72
2022-08-09T08:53:16.129Z,4.43
2022-08-09T08:56:45.398Z,4.07
2022-08-09T09:00:17.078Z,4.45
2022-08-09T09:03:47.118Z,4.63
2022-08-09T09:07:15.282Z,3.95
2022-08-09T09:10:39.886Z,4.20
2022-08-09T09:14:15.760Z,3.65
2022-08-09T09:17:49.619Z,3.78
2022-08-09T09:21:17.805Z,3.60
2022-08-09T09:24:51.150Z,3.30
2022-08-09T09:28:21.385Z,3.80
2022-08-09T09:32:05.902Z,3.30
2022-08-09T09:36:01.346Z,3.60
2022-08-09T09:39:50.506Z,3.47
2022-08-09T09:43:20.530Z,3.20
2022-08-09T09:46:45.887Z,3.38
2022-08-09T09:50:17.305Z,3.67
2022-08-09T09:53:57.799Z,2.92
2022-08-09T09:58:02.377Z,3.85
2022-08-09T10:01:31.229Z,4.85
2022-08-09T10:05:06.649Z,3.47
2022-08-09T10:08:29.805Z,4.28
2022-08-09T10:12:14.876Z,4.03
2022-08-09T10:16:09.310Z,3.83
2022-08-09T10:19:36.755Z,3.58
2022-08-09T10:23:13.596Z,3.90
2022-08-09T10:26:40.886Z,4.10
2022-08-09T10:30:43.980Z,3.63
2022-08-09T10:34:08.108Z,3.63
2022-08-09T10:37:33.117Z,3.97
2022-08-09T10:41:01.489Z,3.72
2022-08-09T10:44:30.321Z,4.32
2022-08-09T10:48:19.203Z,3.17
2022-08-09T10:51:56.171Z,3.97
2022-08-09T10:55:23.795Z,3.65
2022-08-09T10:58:49.487Z,4.13
2022-08-09T11:03:14.569Z,3.83
2022-08-09T11:06:20.855Z,3.53
2022-08-09T11:09:53.235Z,3.75
2022-08-09T11:13:51.255Z,3.83
2022-08-09T11:17:04.002Z,3.92
2022-08-09T11:20:41.544Z,4.25
2022-08-09T11:24:06.420Z,3.70
2022-08-09T11:28:04.705Z,3.80
2022-08-09T11:31:43.380Z,3.30
2022-08-09T11:35:09.767Z,4.32
2022-08-09T11:38:41.621Z,3.35
2022-08-09T11:42:09.310Z,3.47
2022-08-09T11:45:43.493Z,3.50
2022-08-09T11:49:07.287Z,4.50
2022-08-09T11:53:21.376Z,4.22
2022-08-09T11:56:55.823Z,3.83
2022-08-09T12:00:24.294Z,3.75
2022-08-09T12:04:00.447Z,3.65
2022-08-09T12:07:28.996Z,3.63
2022-08-09T12:11:05.243Z,3.97
2022-08-09T12:15:04.272Z,3.65
2022-08-09T12:18:29.889Z,3.30
2022-08-09T12:22:01.697Z,3.17
2022-08-09T12:25:36.017Z,3.30
2022-08-09T12:29:13.000Z,3.40
2022-08-09T12:32:44.374Z,3.58
2022-08-09T12:36:27.439Z,3.55
2022-08-09T12:40:02.690Z,2.92
2022-08-09T12:44:05.981Z,3.63
2022-08-09T12:47:11.158Z,2.80
2022-08-09T12:50:36.570Z,3.63
2022-08-09T12:54:01.962Z,3.42
2022-08-09T12:57:39.597Z,3.20
2022-08-09T13:01:04.990Z,3.80
2022-08-09T13:04:36.776Z,3.28
2022-08-09T13:08:15.506Z,3.30
2022-08-09T13:11:46.830Z,3.42
2022-08-09T13:15:12.201Z,3.25
2022-08-09T13:18:43.251Z,3.38
2022-08-09T13:22:36.146Z,3.35
2022-08-09T13:25:56.321Z,2.78
2022-08-09T13:29:42.122Z,3.15
2022-08-09T13:33:06.632Z,3.70
2022-08-09T13:36:42.359Z,3.40
2022-08-09T13:41:50.483Z,3.15
2022-08-09T13:43:51.451Z,2.80
2022-08-09T13:47:32.999Z,3.00
2022-08-09T13:51:01.497Z,3.63
2022-08-09T13:54:25.796Z,2.58
2022-08-09T13:57:56.345Z,3.35
2022-08-09T14:01:56.627Z,3.42
2022-08-09T14:05:05.233Z,2.75
2022-08-09T14:08:30.299Z,3.13
2022-08-09T14:11:54.020Z,2.70
2022-08-09T14:16:07.148Z,2.95
2022-08-09T14:19:00.083Z,2.97
2022-08-09T14:22:23.113Z,3.13
2022-08-09T14:25:47.576Z,2.60
2022-08-09T14:30:03.961Z,3.10
2022-08-09T14:32:58.544Z,2.70
2022-08-09T14:36:21.580Z,3.03
2022-08-09T14:39:47.316Z,2.85
2022-08-09T14:43:18.476Z,3.70
2022-08-09T14:47:01.517Z,2.88
2022-08-09T14:50:24.765Z,3.72
2022-08-09T14:53:52.576Z,2.90
2022-08-09T14:57:15.670Z,3.28
2022-08-09T15:00:42.609Z,3.33
2022-08-09T15:04:11.694Z,3.03
2022-08-09T15:07:35.721Z,3.63
2022-08-09T15:11:01.036Z,3.83
2022-08-09T15:14:33.672Z,4.43
2022-08-09T15:17:58.725Z,3.95
2022-08-09T15:21:58.617Z,5.15
2022-08-09T15:25:05.897Z,3.85
2022-08-09T15:28:33.132Z,3.97
2022-08-09T15:31:56.561Z,4.18
2022-08-09T15:35:44.309Z,4.38
2022-08-09T15:39:05.499Z,4.45
2022-08-09T15:42:29.214Z,3.72
2022-08-09T15:46:28.419Z,3.97
2022-08-09T15:49:35.163Z,3.65
2022-08-09T15:53:06.095Z,4.10
2022-08-09T15:56:31.055Z,3.70
2022-08-09T15:59:54.421Z,4.13
2022-08-09T16:03:18.856Z,3.38
2022-08-09T16:06:52.843Z,3.75
2022-08-09T16:10:56.157Z,2.72
2022-08-09T16:14:07.151Z,3.20
2022-08-09T16:17:30.806Z,4.45
2022-08-09T16:20:55.862Z,3.08
2022-08-09T16:24:33.096Z,3.20
2022-08-09T16:27:58.395Z,3.35
2022-08-09T16:31:37.952Z,3.00
2022-08-09T16:35:05.656Z,2.88
2022-08-09T16:38:29.539Z,3.33
2022-08-09T16:42:02.569Z,2.95
2022-08-09T16:45:27.758Z,3.33
2022-08-09T16:48:53.922Z,3.40
2022-08-09T16:52:22.443Z,3.35
2022-08-09T16:55:59.112Z,2.80
2022-08-09T16:59:24.787Z,3.80
2022-08-09T17:02:49.109Z,2.80
2022-08-09T17:06:31.491Z,2.90
2022-08-09T17:10:01.896Z,3.45
2022-08-09T17:13:25.282Z,2.72
2022-08-09T17:17:00.136Z,2.88
2022-08-09T17:20:30.413Z,3.00
2022-08-09T17:24:28.503Z,2.60
2022-08-09T17:27:49.458Z,2.40
2022-08-09T17:31:17.815Z,3.47
2022-08-09T17:35:02.079Z,2.58
2022-08-09T17:38:32.909Z,2.90
2022-08-09T17:42:01.403Z,2.42
2022-08-09T17:45:26.969Z,2.38
2022-08-09T17:48:52.422Z,2.60
2022-08-09T17:52:21.980Z,2.85
2022-08-09T17:55:49.456Z,2.88
2022-08-09T17:59:16.800Z,2.70
2022-08-09T18:02:40.754Z,3.00
2022-08-09T18:06:14.892Z,2.50
2022-08-09T18:10:04.740Z,2.53
2022-08-09T18:13:40.020Z,2.75
2022-08-09T18:17:19.069Z,2.58
2022-08-09T18:20:55.739Z,2.70
2022-08-09T18:24:27.613Z,3.10
2022-08-09T18:28:05.454Z,2.70
2022-08-09T18:31:51.112Z,2.47
2022-08-09T18:35:15.057Z,2.72
2022-08-09T18:38:40.325Z,1.92
2022-08-09T18:42:08.084Z,2.47
2022-08-09T18:46:50.534Z,2.45
2022-08-09T18:49:16.306Z,2.17
2022-08-09T18:52:42.461Z,2.63
2022-08-09T18:56:06.282Z,2.45
2022-08-09T18:59:29.302Z,2.42
2022-08-09T19:03:00.842Z,2.50
2022-08-09T19:06:25.930Z,2.58
2022-08-09T19:10:15.805Z,2.30
2022-08-09T19:13:49.656Z,2.20
2022-08-09T19:17:13.023Z,1.92
2022-08-09T19:20:39.186Z,2.58
2022-08-09T19:24:37.175Z,2.40
2022-08-09T19:27:46.876Z,2.90
2022-08-09T19:31:14.317Z,2.00
2022-08-09T19:34:42.793Z,2.88
2022-08-09T19:38:07.572Z,2.28
2022-08-09T19:41:33.199Z,3.42
2022-08-09T19:44:58.488Z,2.80
2022-08-09T19:49:00.954Z,2.25
2022-08-09T19:52:04.594Z,3.05
2022-08-09T19:55:39.089Z,2.83
2022-08-09T19:59:39.816Z,2.47
2022-08-09T20:04:27.840Z,2.70
2022-08-09T20:06:38.488Z,2.78
2022-08-09T20:10:06.554Z,2.58
2022-08-09T20:13:30.160Z,2.95
2022-08-09T20:16:56.989Z,2.40
2022-08-09T20:20:20.685Z,2.28
2022-08-09T20:23:45.082Z,2.53
2022-08-09T20:27:08.915Z,2.40
2022-08-09T20:30:34.679Z,3.33
2022-08-09T20:34:02.180Z,2.55
2022-08-09T20:37:25.575Z,3.13
2022-08-09T20:41:08.714Z,3.13
2022-08-09T20:44:36.254Z,2.55
2022-08-09T20:47:59.724Z,2.40
2022-08-09T20:51:25.357Z,3.67
2022-08-09T20:54:52.494Z,2.88
2022-08-09T20:58:19.908Z,3.30
2022-08-09T21:01:50.121Z,3.22
2022-08-09T21:05:51.205Z,2.90
2022-08-09T21:09:00.302Z,3.08
2022-08-09T21:12:56.443Z,2.90
2022-08-09T21:16:19.171Z,2.53
2022-08-09T21:20:18.925Z,3.00
2022-08-09T21:23:26.580Z,2.65
2022-08-09T21:27:52.251Z,2.63
2022-08-09T21:30:53.885Z,3.65
2022-08-09T21:34:20.969Z,3.08
2022-08-09T21:37:59.499Z,2.25
2022-08-09T21:41:25.539Z,3.25
2022-08-09T21:45:08.294Z,2.95
2022-08-09T21:48:42.807Z,3.03
2022-08-09T21:52:17.612Z,2.97
2022-08-09T21:55:46.506Z,2.92
2022-08-09T21:59:09.853Z,2.42
2022-08-09T22:02:36.828Z,2.45
2022-08-09T22:06:01.058Z,2.72
2022-08-09T22:09:24.197Z,2.97
2022-08-09T22:12:49.701Z,2.25
2022-08-09T22:16:13.206Z,2.53
2022-08-09T22:19:59.304Z,2.35
2022-08-09T22:23:22.350Z,2.72
2022-08-09T22:26:51.777Z,2.15
2022-08-09T22:30:15.373Z,2.33
2022-08-09T22:33:55.652Z,2.92
2022-08-09T22:37:22.026Z,2.63
2022-08-09T22:40:49.120Z,2.50
2022-08-09T22:44:21.556Z,2.40
2022-08-09T22:48:16.516Z,2.80
2022-08-09T22:51:28.065Z,2.40
2022-08-09T22:54:52.930Z,2.63
2022-08-09T22:58:31.028Z,3.13
2022-08-09T23:01:56.747Z,2.22
2022-08-09T23:05:19.832Z,2.60
2022-08-09T23:08:44.509Z,2.20
2022-08-09T23:12:09.295Z,2.15
2022-08-09T23:15:32.373Z,2.50
2022-08-09T23:18:55.341Z,2.53
2022-08-09T23:22:18.458Z,2.40
2022-08-09T23:25:41.497Z,2.45
2022-08-09T23:29:06.550Z,2.70
2022-08-09T23:32:29.637Z,2.58
2022-08-09T23:36:06.641Z,2.15
2022-08-09T23:39:30.514Z,2.50
2022-08-09T23:42:53.545Z,2.25
2022-08-09T23:46:17.946Z,2.30
2022-08-09T23:49:40.922Z,2.35
2022-08-09T23:53:04.462Z,2.47
2022-08-09T23:56:52.206Z,2.75
